Latest Weather Observations for Burnie Port

IDT60801

Issued at 2:51 pm EDT Thursday 13 December 2018 (issued every 10 minutes, with the page automatically refreshed every 10 minutes)

About weather observations | Map of weather stations | Latest weather observations for TAS | Other Formats
Station Details ID: 091344 Name: BURNIE NTC AWS Lat: -41.05 Lon: 145.91 Height: 0.0 m
Data from the previous 72 hours. | See also: Recent months for locations in Tasmania
Date/Time
EDT
Temp
°C
App
Temp
°C
Dew
Point
°C
Rel
Hum
%
Delta-T
°C
Wind Press
QNH
hPa
Press
MSL
hPa
Rain since
9am
mm
Dir  Spd
km/h
Gust
km/h
Spd
kts
Gust
kts
13/02:30pm 17.6 - - - - ESE 35 46 19 25 1001.8 1001.8 -
13/02:00pm 17.7 - - - - ESE 39 46 21 25 1001.5 1001.5 -
13/01:30pm 17.5 - - - - ESE 33 41 18 22 1001.4 1001.4 -
13/01:00pm 17.4 - - - - ESE 35 43 19 23 1001.3 1001.3 -
13/12:30pm 17.3 - - - - ESE 33 41 18 22 1001.4 1001.4 -
13/12:00pm 17.3 - - - - ESE 33 43 18 23 1001.4 1001.4 -
13/11:30am 17.3 - - - - ESE 32 39 17 21 1001.2 1001.2 -
13/11:00am 17.4 - - - - SE 32 39 17 21 1001.0 1001.0 -
13/10:30am 17.5 - - - - SE 32 43 17 23 1001.1 1001.1 -
13/10:00am 17.6 - - - - SE 35 43 19 23 1001.3 1001.3 -
13/09:30am 17.9 - - - - SE 37 48 20 26 1001.3 1001.3 -
13/09:00am 17.9 - - - - SE 35 48 19 26 1001.8 1001.8 -
13/08:30am 17.5 - - - - SE 37 46 20 25 1001.7 1001.7 -
13/08:00am 17.3 - - - - SE 43 56 23 30 1001.3 1001.3 -
13/07:30am 17.0 - - - - SE 44 56 24 30 1001.2 1001.2 -
13/07:00am 16.8 - - - - ESE 43 57 23 31 1001.2 1001.2 -
13/06:30am 16.7 - - - - ESE 46 57 25 31 1001.2 1001.2 -
13/06:00am 16.7 - - - - ESE 39 46 21 25 1002.4 1002.4 -
13/05:30am 16.5 - - - - ESE 26 30 14 16 1002.5 1002.5 -
13/05:00am 16.0 - - - - ESE 28 35 15 19 1002.6 1002.6 -
13/04:30am 16.3 - - - - ESE 28 39 15 21 1002.8 1002.8 -
13/04:00am 16.6 - - - - SE 30 46 16 25 1002.8 1002.8 -
13/03:30am 16.4 - - - - SE 28 35 15 19 1003.2 1003.2 -
13/03:00am 16.4 - - - - SE 33 50 18 27 1003.0 1003.0 -
13/02:57am 16.5 - - - - SE 32 50 17 27 1003.1 1003.1 -
13/02:30am 16.4 - - - - SE 30 43 16 23 1003.9 1003.9 -
13/02:00am 16.1 - - - - SE 32 39 17 21 1004.5 1004.5 -
13/01:30am 16.1 - - - - ESE 30 37 16 20 1005.7 1005.7 -
13/01:00am 16.1 - - - - ESE 35 41 19 22 1006.0 1006.0 -
13/12:30am 16.5 - - - - ESE 39 46 21 25 1005.9 1005.9 -
13/12:00am 17.2 - - - - ESE 39 46 21 25 1006.5 1006.5 -
 
Date/Time
EDT
Temp
°C
App
Temp
°C
Dew
Point
°C
Rel
Hum
%
Delta-T
°C
Wind Press
QNH
hPa
Press
MSL
hPa
Rain since
9am
mm
Dir  Spd
km/h
Gust
km/h
Spd
kts
Gust
kts
12/11:30pm 17.5 - - - - ESE 39 46 21 25 1006.7 1006.7 -
12/11:00pm 17.5 - - - - ESE 39 46 21 25 1006.9 1006.9 -
12/10:30pm 17.5 - - - - ESE 41 48 22 26 1007.2 1007.2 -
12/10:00pm 17.4 - - - - ESE 39 46 21 25 1007.5 1007.5 -
12/09:30pm 17.3 - - - - ESE 37 46 20 25 1007.5 1007.5 -
12/09:00pm 17.3 - - - - ESE 37 43 20 23 1007.8 1007.8 -
12/08:30pm 17.3 - - - - ESE 33 39 18 21 1008.1 1008.1 -
12/08:00pm 17.3 - - - - ESE 32 37 17 20 1008.2 1008.2 -
12/07:30pm 17.4 - - - - ESE 33 39 18 21 1008.1 1008.1 -
12/07:00pm 17.4 - - - - ESE 30 37 16 20 1008.2 1008.2 -
12/06:30pm 17.4 - - - - ESE 32 35 17 19 1008.2 1008.2 -
12/06:00pm 17.3 - - - - ESE 26 33 14 18 1008.8 1008.8 -
12/05:30pm 17.3 - - - - ESE 26 32 14 17 1009.2 1009.2 -
12/05:00pm 17.3 - - - - ESE 30 37 16 20 1009.5 1009.5 -
12/04:30pm 17.3 - - - - ESE 30 33 16 18 1010.0 1010.0 -
12/04:00pm 17.2 - - - - ESE 30 37 16 20 1010.3 1010.3 -
12/03:30pm 17.1 - - - - ESE 32 37 17 20 1010.6 1010.6 -
12/03:00pm 17.1 - - - - ESE 33 39 18 21 1011.1 1011.1 -
12/02:30pm 16.9 - - - - ESE 32 37 17 20 1011.5 1011.5 -
12/02:00pm 16.9 - - - - E 30 37 16 20 1012.0 1012.0 -
12/01:30pm 16.8 - - - - E 32 43 17 23 1012.4 1012.4 -
12/01:00pm 16.7 - - - - E 32 39 17 21 1012.9 1012.9 -
12/12:30pm 16.6 - - - - ESE 33 43 18 23 1013.3 1013.3 -
12/12:00pm 16.5 - - - - E 35 43 19 23 1013.6 1013.6 -
12/11:30am 16.2 - - - - ESE 39 43 21 23 1013.7 1013.7 -
12/11:00am 16.1 - - - - ESE 37 44 20 24 1013.8 1013.8 -
12/10:30am 15.9 - - - - ESE 37 43 20 23 1014.1 1014.1 -
12/10:00am 15.7 - - - - ESE 37 44 20 24 1014.5 1014.5 -
12/09:30am 15.5 - - - - ESE 33 39 18 21 1015.0 1015.0 -
12/09:00am 15.4 - - - - ESE 35 41 19 22 1015.2 1015.2 -
12/08:30am 15.1 - - - - ESE 33 43 18 23 1015.2 1015.2 -
12/08:00am 15.0 - - - - ESE 33 39 18 21 1014.9 1014.9 -
12/07:30am 15.1 - - - - ESE 32 39 17 21 1015.0 1015.0 -
12/07:00am 15.0 - - - - ESE 30 35 16 19 1015.3 1015.3 -
12/06:30am 15.0 - - - - ESE 33 41 18 22 1015.2 1015.2 -
12/06:00am 14.9 - - - - SE 28 33 15 18 1015.2 1015.2 -
12/05:30am 15.4 - - - - ESE 33 39 18 21 1015.4 1015.4 -
12/05:00am 15.3 - - - - ESE 33 39 18 21 1015.4 1015.4 -
12/04:30am 15.6 - - - - E 32 39 17 21 1015.6 1015.6 -
12/04:00am 15.8 - - - - E 30 35 16 19 1016.1 1016.1 -
12/03:30am 15.9 - - - - E 28 33 15 18 1016.4 1016.4 -
12/03:00am 16.0 - - - - E 28 32 15 17 1016.6 1016.6 -
12/02:30am 16.2 - - - - E 26 32 14 17 1016.9 1016.9 -
12/02:00am 16.3 - - - - E 24 35 13 19 1017.3 1017.3 -
12/01:30am 16.3 - - - - E 26 33 14 18 1017.8 1017.8 -
12/01:00am 16.3 - - - - E 26 32 14 17 1018.0 1018.0 -
12/12:30am 16.5 - - - - E 24 32 13 17 1018.4 1018.4 -
12/12:00am 16.5 - - - - E 22 30 12 16 1018.5 1018.5 -
 
Date/Time
EDT
Temp
°C
App
Temp
°C
Dew
Point
°C
Rel
Hum
%
Delta-T
°C
Wind Press
QNH
hPa
Press
MSL
hPa
Rain since
9am
mm
Dir  Spd
km/h
Gust
km/h
Spd
kts
Gust
kts
11/11:30pm 16.6 - - - - E 24 30 13 16 1018.5 1018.5 -
11/11:00pm 16.7 - - - - E 22 28 12 15 1018.7 1018.7 -
11/10:30pm 16.7 - - - - E 22 26 12 14 1018.8 1018.8 -
11/10:00pm 16.6 - - - - E 20 24 11 13 1018.8 1018.8 -
11/09:30pm 16.6 - - - - E 17 20 9 11 1018.7 1018.7 -
11/09:00pm 16.6 - - - - ESE 15 19 8 10 1018.6 1018.6 -
11/08:30pm 16.5 - - - - ESE 15 17 8 9 1018.5 1018.5 -
11/08:00pm 16.6 - - - - ESE 15 17 8 9 1018.3 1018.3 -
11/07:30pm 16.6 - - - - ESE 13 15 7 8 1018.3 1018.3 -
11/07:00pm 16.6 - - - - E 13 17 7 9 1018.1 1018.1 -
11/06:30pm 16.6 - - - - E 11 15 6 8 1018.2 1018.2 -
11/06:00pm 16.8 - - - - E 9 11 5 6 1018.4 1018.4 -
11/05:30pm 16.7 - - - - E 7 9 4 5 1018.6 1018.6 -
11/05:00pm 16.7 - - - - ENE 7 13 4 7 1018.5 1018.5 -
11/04:30pm 16.6 - - - - NE 6 7 3 4 1019.1 1019.1 -
11/04:00pm 16.6 - - - - NE 7 9 4 5 1019.4 1019.4 -
11/03:30pm 16.5 - - - - NE 9 13 5 7 1019.6 1019.6 -
11/03:00pm 16.5 - - - - NE 13 17 7 9 1019.9 1019.9 -
11/02:30pm 16.3 - - - - NE 15 20 8 11 1019.9 1019.9 -
11/02:00pm 16.3 - - - - NE 15 22 8 12 1019.9 1019.9 -
11/01:30pm 16.2 - - - - NE 13 20 7 11 1020.2 1020.2 -
11/01:00pm 16.3 - - - - ENE 13 22 7 12 1020.4 1020.4 -
11/12:30pm 16.3 - - - - E 15 22 8 12 1020.6 1020.6 -
11/12:00pm 16.1 - - - - E 17 22 9 12 1020.6 1020.6 -
11/11:30am 15.8 - - - - ESE 17 20 9 11 1020.7 1020.7 -
11/11:00am 15.7 - - - - E 20 24 11 13 1020.6 1020.6 -
11/10:30am 15.5 - - - - ESE 20 26 11 14 1020.5 1020.5 -
11/10:00am 15.6 - - - - E 20 26 11 14 1020.5 1020.5 -
11/09:30am 15.7 - - - - E 22 26 12 14 1020.3 1020.3 -
11/09:00am 15.7 - - - - ESE 17 19 9 10 1020.2 1020.2 -
11/08:30am 15.7 - - - - ESE 19 30 10 16 1019.8 1019.8 -
11/08:00am 15.5 - - - - E 24 30 13 16 1019.5 1019.5 -
11/07:30am 15.5 - - - - ESE 19 26 10 14 1019.4 1019.4 -
11/07:00am 15.5 - - - - E 22 30 12 16 1019.0 1019.0 -
11/06:30am 15.6 - - - - ESE 24 30 13 16 1018.8 1018.8 -
11/06:00am 15.6 - - - - ESE 20 24 11 13 1018.7 1018.7 -
11/05:30am 15.5 - - - - ESE 19 22 10 12 1018.4 1018.4 -
11/05:00am 15.7 - - - - E 24 30 13 16 1018.2 1018.2 -
11/04:30am 15.8 - - - - ESE 26 33 14 18 1018.1 1018.1 -
11/04:00am 15.8 - - - - ESE 30 33 16 18 1018.1 1018.1 -
11/03:30am 16.0 - - - - ESE 32 35 17 19 1018.0 1018.0 -
11/03:00am 15.8 - - - - ESE 28 39 15 21 1018.0 1018.0 -
11/02:30am 15.9 - - - - ESE 26 35 14 19 1018.0 1018.0 -
11/02:00am 15.9 - - - - SE 26 32 14 17 1018.1 1018.1 -
11/01:30am 15.9 - - - - ESE 30 35 16 19 1018.0 1018.0 -
11/01:00am 16.7 - - - - SE 19 28 10 15 1017.7 1017.7 -
11/12:30am 16.0 - - - - SSW 15 24 8 13 1017.7 1017.7 -
11/12:00am 15.8 - - - - S 19 24 10 13 1017.4 1017.4 -
 
Date/Time
EDT
Temp
°C
App
Temp
°C
Dew
Point
°C
Rel
Hum
%
Delta-T
°C
Wind Press
QNH
hPa
Press
MSL
hPa
Rain since
9am
mm
Dir  Spd
km/h
Gust
km/h
Spd
kts
Gust
kts
10/11:30pm 16.4 - - - - SSW 19 24 10 13 1016.9 1016.9 -
10/11:00pm 15.9 - - - - SSW 22 28 12 15 1016.6 1016.6 -
10/10:30pm 16.1 - - - - SSW 20 28 11 15 1016.6 1016.6 -
10/10:00pm 16.4 - - - - SSW 22 28 12 15 1016.4 1016.4 -
10/09:30pm 16.8 - - - - SSW 24 33 13 18 1016.3 1016.3 -
10/09:00pm 17.3 - - - - SSW 24 39 13 21 1015.9 1015.9 -
10/08:30pm 18.1 - - - - SW 24 35 13 19 1015.8 1015.8 -
10/08:00pm 18.8 - - - - SW 20 30 11 16 1015.5 1015.5 -
10/07:30pm 19.5 - - - - SW 24 39 13 21 1015.4 1015.4 -
10/07:00pm 19.9 - - - - WSW 22 33 12 18 1015.1 1015.1 -
10/06:30pm 20.4 - - - - WSW 17 26 9 14 1015.2 1015.2 -
10/06:00pm 20.8 - - - - SW 17 30 9 16 1015.1 1015.1 -
10/05:30pm 20.7 - - - - SW 20 32 11 17 1014.8 1014.8 -
10/05:00pm 21.0 - - - - SW 17 28 9 15 1014.5 1014.5 -
10/04:30pm 20.5 - - - - SW 17 30 9 16 1014.9 1014.9 -
10/04:00pm 20.7 - - - - WSW 15 28 8 15 1015.0 1015.0 -
10/03:30pm 20.7 - - - - WSW 19 41 10 22 1015.1 1015.1 -
10/03:00pm 20.1 - - - - WSW 19 37 10 20 1015.2 1015.2 -

Other Formats:

Comma delimited format used in spreadsheet applications
http://www.bom.gov.au/fwo/IDT60801/IDT60801.95963.axf

JavaScript Object Notation format (JSON) in row-major order
http://www.bom.gov.au/fwo/IDT60801/IDT60801.95963.json